Skip Navigation Links
NOAA logo - Click to go to the NOAA homepage
NOAA's National Weather Service
Alaska Aviation Weather Unit
  NWS logo - Click to go to the NWS homepage
Left Navbar Graphic     02 AKDT = 10 GMT

   
NOAA is celebrating 200 years of science, service, and stewardship. Visit the NOAA 200th celebration Web site to learn more.
USA.gov is the U.S. Government's official Web portal to all Federal, state and local government Web resources and services.
Facebook
NWS on Facebook

AAWU Home :: Display TAF Add Bookmark
METAR PATQ 270456Z AUTO 25012KT 10SM CLR M25/M27 A3008=

METAR PATQ 270556Z AUTO 25010KT 9SM -SN CLR M26/M28 A3009=

PATQ 270636Z AUTO 25009KT 9SM -SN BKN027 OVC032 M26/M29 A3009=

METAR PATQ 270656Z AUTO 25008KT 9SM -SN OVC027 M26/M29 A3010=

METAR PATQ 270756Z AUTO 26007KT 9SM -SN OVC029 M27/M29 A3011=

METAR PATQ 270956Z AUTO 27003KT 9SM -SN FEW024 BKN029 M27/M29 A3011=


NOAA's National Weather Service
Alaska Aviation Weather Unit
6930 Sand Lake Road
Anchorage, AK 99502-1845
Disclaimer
Credits
Glossary
Privacy Policy
About Us
Career Opportunities
Contact AAWU Internet Services Site last modified: April, 17th 2012